sensor_id;sensor_type;location;lat;lon;timestamp;temperature;humidity
17859;DHT22;35426;30.698;104.050;2022-08-25T00:01:26;29.50;99.90
17859;DHT22;35426;30.698;104.050;2022-08-25T00:04:02;29.30;99.90
17859;DHT22;35426;30.698;104.050;2022-08-25T00:06:37;29.40;99.90
17859;DHT22;35426;30.698;104.050;2022-08-25T00:09:13;29.40;99.90
17859;DHT22;35426;30.698;104.050;2022-08-25T00:11:49;29.60;99.90
17859;DHT22;35426;30.698;104.050;2022-08-25T00:14:24;29.60;99.90
17859;DHT22;35426;30.698;104.050;2022-08-25T00:16:58;29.60;99.90
17859;DHT22;35426;30.698;104.050;2022-08-25T00:19:36;29.40;99.90
17859;DHT22;35426;30.698;104.050;2022-08-25T00:22:09;29.10;99.90
17859;DHT22;35426;30.698;104.050;2022-08-25T00:24:42;29.10;99.90
17859;DHT22;35426;30.698;104.050;2022-08-25T00:27:18;29.00;99.90
17859;DHT22;35426;30.698;104.050;2022-08-25T00:29:52;29.10;99.90
17859;DHT22;35426;30.698;104.050;2022-08-25T00:32:25;29.20;99.90
17859;DHT22;35426;30.698;104.050;2022-08-25T00:34:59;29.20;99.90
17859;DHT22;35426;30.698;104.050;2022-08-25T00:37:33;29.40;99.90
17859;DHT22;35426;30.698;104.050;2022-08-25T00:40:09;29.50;99.90
17859;DHT22;35426;30.698;104.050;2022-08-25T00:42:44;29.50;99.90
17859;DHT22;35426;30.698;104.050;2022-08-25T00:45:19;29.70;99.90
17859;DHT22;35426;30.698;104.050;2022-08-25T00:47:53;29.80;99.90
17859;DHT22;35426;30.698;104.050;2022-08-25T00:50:28;29.60;99.90
17859;DHT22;35426;30.698;104.050;2022-08-25T00:53:07;29.70;99.90
17859;DHT22;35426;30.698;104.050;2022-08-25T00:55:40;29.70;99.90
17859;DHT22;35426;30.698;104.050;2022-08-25T00:58:19;29.60;99.90
17859;DHT22;35426;30.698;104.050;2022-08-25T01:00:55;29.70;99.90
17859;DHT22;35426;30.698;104.050;2022-08-25T01:03:31;29.70;99.90
17859;DHT22;35426;30.698;104.050;2022-08-25T01:06:06;29.70;99.90
17859;DHT22;35426;30.698;104.050;2022-08-25T01:08:40;29.50;99.90
17859;DHT22;35426;30.698;104.050;2022-08-25T01:11:17;29.80;99.90
17859;DHT22;35426;30.698;104.050;2022-08-25T01:13:55;29.90;99.90
17859;DHT22;35426;30.698;104.050;2022-08-25T01:16:34;29.90;99.90
17859;DHT22;35426;30.698;104.050;2022-08-25T01:19:09;29.80;99.90
17859;DHT22;35426;30.698;104.050;2022-08-25T01:21:47;30.20;99.90
17859;DHT22;35426;30.698;104.050;2022-08-25T01:24:28;30.30;99.90
17859;DHT22;35426;30.698;104.050;2022-08-25T01:27:05;30.20;99.90
17859;DHT22;35426;30.698;104.050;2022-08-25T01:29:39;30.40;99.90
17859;DHT22;35426;30.698;104.050;2022-08-25T01:32:25;30.70;99.90
17859;DHT22;35426;30.698;104.050;2022-08-25T01:35:01;30.50;99.90
17859;DHT22;35426;30.698;104.050;2022-08-25T01:37:37;30.80;99.90
17859;DHT22;35426;30.698;104.050;2022-08-25T01:40:12;31.30;99.90
17859;DHT22;35426;30.698;104.050;2022-08-25T01:42:56;31.60;99.90
17859;DHT22;35426;30.698;104.050;2022-08-25T01:45:31;31.80;99.90
17859;DHT22;35426;30.698;104.050;2022-08-25T01:48:06;31.70;99.90
17859;DHT22;35426;30.698;104.050;2022-08-25T01:50:40;31.80;99.90
17859;DHT22;35426;30.698;104.050;2022-08-25T01:56:12;31.00;99.90
17859;DHT22;35426;30.698;104.050;2022-08-25T01:58:48;31.20;99.90
17859;DHT22;35426;30.698;104.050;2022-08-25T02:01:23;31.00;99.90
17859;DHT22;35426;30.698;104.050;2022-08-25T02:03:56;30.90;99.90
17859;DHT22;35426;30.698;104.050;2022-08-25T02:06:33;31.10;99.90
17859;DHT22;35426;30.698;104.050;2022-08-25T02:09:13;31.10;99.90
17859;DHT22;35426;30.698;104.050;2022-08-25T02:11:47;31.40;99.90
17859;DHT22;35426;30.698;104.050;2022-08-25T02:14:22;31.60;99.90
17859;DHT22;35426;30.698;104.050;2022-08-25T02:16:55;32.00;99.90
17859;DHT22;35426;30.698;104.050;2022-08-25T02:19:29;32.00;99.90
17859;DHT22;35426;30.698;104.050;2022-08-25T02:22:04;31.50;99.90
17859;DHT22;35426;30.698;104.050;2022-08-25T02:24:40;31.00;99.90
17859;DHT22;35426;30.698;104.050;2022-08-25T02:27:13;31.40;99.90
17859;DHT22;35426;30.698;104.050;2022-08-25T02:29:47;31.50;99.90
17859;DHT22;35426;30.698;104.050;2022-08-25T02:32:20;31.20;99.90
17859;DHT22;35426;30.698;104.050;2022-08-25T02:34:54;30.70;99.90
17859;DHT22;35426;30.698;104.050;2022-08-25T02:37:28;30.40;99.90
17859;DHT22;35426;30.698;104.050;2022-08-25T02:40:04;30.40;99.90
17859;DHT22;35426;30.698;104.050;2022-08-25T02:42:44;30.70;99.90
17859;DHT22;35426;30.698;104.050;2022-08-25T02:45:18;30.40;99.90
17859;DHT22;35426;30.698;104.050;2022-08-25T02:47:52;30.20;99.90
17859;DHT22;35426;30.698;104.050;2022-08-25T02:50:28;30.60;99.90
17859;DHT22;35426;30.698;104.050;2022-08-25T02:53:01;30.80;99.90
17859;DHT22;35426;30.698;104.050;2022-08-25T02:55:37;30.90;99.90
17859;DHT22;35426;30.698;104.050;2022-08-25T02:58:12;30.70;99.90
17859;DHT22;35426;30.698;104.050;2022-08-25T03:00:47;31.30;99.90
17859;DHT22;35426;30.698;104.050;2022-08-25T03:03:23;31.30;99.90
17859;DHT22;35426;30.698;104.050;2022-08-25T03:05:57;31.60;99.90
17859;DHT22;35426;30.698;104.050;2022-08-25T03:08:31;31.60;99.90
17859;DHT22;35426;30.698;104.050;2022-08-25T03:11:07;32.10;99.90
17859;DHT22;35426;30.698;104.050;2022-08-25T03:13:41;31.80;99.90
17859;DHT22;35426;30.698;104.050;2022-08-25T03:16:18;31.70;99.90
17859;DHT22;35426;30.698;104.050;2022-08-25T03:18:57;31.30;99.90
17859;DHT22;35426;30.698;104.050;2022-08-25T03:21:34;31.40;99.90
17859;DHT22;35426;30.698;104.050;2022-08-25T03:24:09;32.00;99.90
17859;DHT22;35426;30.698;104.050;2022-08-25T03:26:45;32.50;99.90
17859;DHT22;35426;30.698;104.050;2022-08-25T03:29:25;31.90;99.90
17859;DHT22;35426;30.698;104.050;2022-08-25T03:31:59;32.00;99.90
17859;DHT22;35426;30.698;104.050;2022-08-25T03:34:33;32.00;99.90
17859;DHT22;35426;30.698;104.050;2022-08-25T03:37:07;32.20;99.90
17859;DHT22;35426;30.698;104.050;2022-08-25T03:39:41;32.10;99.90
17859;DHT22;35426;30.698;104.050;2022-08-25T03:42:17;31.20;99.90
17859;DHT22;35426;30.698;104.050;2022-08-25T03:44:50;31.00;99.90
17859;DHT22;35426;30.698;104.050;2022-08-25T03:47:25;31.40;99.90
17859;DHT22;35426;30.698;104.050;2022-08-25T03:49:59;31.60;99.90
17859;DHT22;35426;30.698;104.050;2022-08-25T03:52:32;31.10;99.90
17859;DHT22;35426;30.698;104.050;2022-08-25T03:55:16;31.50;99.90
17859;DHT22;35426;30.698;104.050;2022-08-25T03:57:52;30.70;99.90
17859;DHT22;35426;30.698;104.050;2022-08-25T04:00:26;30.30;99.90
17859;DHT22;35426;30.698;104.050;2022-08-25T04:02:59;30.20;99.90
17859;DHT22;35426;30.698;104.050;2022-08-25T04:05:36;30.40;99.90
17859;DHT22;35426;30.698;104.050;2022-08-25T04:08:10;30.00;99.90
17859;DHT22;35426;30.698;104.050;2022-08-25T04:10:44;30.20;99.90
17859;DHT22;35426;30.698;104.050;2022-08-25T04:13:23;30.30;99.90
17859;DHT22;35426;30.698;104.050;2022-08-25T04:15:57;30.00;99.90
17859;DHT22;35426;30.698;104.050;2022-08-25T04:18:31;30.30;99.90
17859;DHT22;35426;30.698;104.050;2022-08-25T04:21:06;30.50;99.90
17859;DHT22;35426;30.698;104.050;2022-08-25T04:23:42;30.60;99.90
17859;DHT22;35426;30.698;104.050;2022-08-25T04:26:17;30.40;99.90
17859;DHT22;35426;30.698;104.050;2022-08-25T04:28:54;30.60;99.90
17859;DHT22;35426;30.698;104.050;2022-08-25T04:31:30;31.10;99.90
17859;DHT22;35426;30.698;104.050;2022-08-25T04:34:05;31.20;99.90
17859;DHT22;35426;30.698;104.050;2022-08-25T04:37:00;31.40;99.90
17859;DHT22;35426;30.698;104.050;2022-08-25T04:39:35;30.60;99.90
17859;DHT22;35426;30.698;104.050;2022-08-25T04:42:09;30.60;99.90
17859;DHT22;35426;30.698;104.050;2022-08-25T04:44:45;30.60;99.90
17859;DHT22;35426;30.698;104.050;2022-08-25T04:47:19;30.90;99.90
17859;DHT22;35426;30.698;104.050;2022-08-25T04:49:58;30.60;99.90
17859;DHT22;35426;30.698;104.050;2022-08-25T04:52:31;30.80;99.90
17859;DHT22;35426;30.698;104.050;2022-08-25T04:55:05;31.00;99.90
17859;DHT22;35426;30.698;104.050;2022-08-25T04:57:39;31.20;99.90
17859;DHT22;35426;30.698;104.050;2022-08-25T05:00:15;30.70;99.90
17859;DHT22;35426;30.698;104.050;2022-08-25T05:02:49;30.80;99.90
17859;DHT22;35426;30.698;104.050;2022-08-25T05:05:23;30.60;99.90
17859;DHT22;35426;30.698;104.050;2022-08-25T05:07:57;30.60;99.90
17859;DHT22;35426;30.698;104.050;2022-08-25T05:10:32;31.00;99.90
17859;DHT22;35426;30.698;104.050;2022-08-25T05:13:07;31.00;99.90
17859;DHT22;35426;30.698;104.050;2022-08-25T05:15:42;30.80;99.90
17859;DHT22;35426;30.698;104.050;2022-08-25T05:18:25;31.00;99.90
17859;DHT22;35426;30.698;104.050;2022-08-25T05:21:03;31.00;99.90
17859;DHT22;35426;30.698;104.050;2022-08-25T05:23:37;31.30;99.90
17859;DHT22;35426;30.698;104.050;2022-08-25T05:26:13;31.20;99.90
17859;DHT22;35426;30.698;104.050;2022-08-25T05:28:50;31.50;99.90
17859;DHT22;35426;30.698;104.050;2022-08-25T05:31:27;31.60;99.90
17859;DHT22;35426;30.698;104.050;2022-08-25T05:34:05;31.80;99.90
17859;DHT22;35426;30.698;104.050;2022-08-25T05:36:39;31.50;99.90
17859;DHT22;35426;30.698;104.050;2022-08-25T05:39:13;31.50;99.90
17859;DHT22;35426;30.698;104.050;2022-08-25T05:41:47;30.90;99.90
17859;DHT22;35426;30.698;104.050;2022-08-25T05:44:21;31.20;99.90
17859;DHT22;35426;30.698;104.050;2022-08-25T05:46:57;31.70;99.90
17859;DHT22;35426;30.698;104.050;2022-08-25T05:49:31;31.40;99.90
17859;DHT22;35426;30.698;104.050;2022-08-25T05:52:05;31.30;99.90
17859;DHT22;35426;30.698;104.050;2022-08-25T05:54:43;31.10;99.90
17859;DHT22;35426;30.698;104.050;2022-08-25T05:57:17;31.30;99.90
17859;DHT22;35426;30.698;104.050;2022-08-25T05:59:51;31.20;99.90
17859;DHT22;35426;30.698;104.050;2022-08-25T06:02:29;31.10;99.90
17859;DHT22;35426;30.698;104.050;2022-08-25T06:05:18;31.10;99.90
17859;DHT22;35426;30.698;104.050;2022-08-25T06:07:53;30.90;99.90
17859;DHT22;35426;30.698;104.050;2022-08-25T06:10:26;30.60;99.90
17859;DHT22;35426;30.698;104.050;2022-08-25T06:13:02;30.50;99.90
17859;DHT22;35426;30.698;104.050;2022-08-25T06:15:36;30.60;99.90
17859;DHT22;35426;30.698;104.050;2022-08-25T06:18:12;30.50;99.90
17859;DHT22;35426;30.698;104.050;2022-08-25T06:20:49;30.70;99.90
17859;DHT22;35426;30.698;104.050;2022-08-25T06:23:23;30.60;99.90
17859;DHT22;35426;30.698;104.050;2022-08-25T06:26:11;30.90;99.90
17859;DHT22;35426;30.698;104.050;2022-08-25T06:28:50;30.80;99.90
17859;DHT22;35426;30.698;104.050;2022-08-25T06:31:24;30.50;99.90
17859;DHT22;35426;30.698;104.050;2022-08-25T06:34:01;30.30;99.90
17859;DHT22;35426;30.698;104.050;2022-08-25T06:36:35;30.30;99.90
17859;DHT22;35426;30.698;104.050;2022-08-25T06:39:10;30.30;99.90
17859;DHT22;35426;30.698;104.050;2022-08-25T06:41:44;30.40;99.90
17859;DHT22;35426;30.698;104.050;2022-08-25T06:44:19;30.30;99.90
17859;DHT22;35426;30.698;104.050;2022-08-25T06:46:54;30.40;99.90
17859;DHT22;35426;30.698;104.050;2022-08-25T06:49:30;30.50;99.90
17859;DHT22;35426;30.698;104.050;2022-08-25T06:52:05;30.50;99.90
17859;DHT22;35426;30.698;104.050;2022-08-25T06:54:39;30.70;99.90
17859;DHT22;35426;30.698;104.050;2022-08-25T06:57:17;30.40;99.90
17859;DHT22;35426;30.698;104.050;2022-08-25T06:59:53;30.70;99.90
17859;DHT22;35426;30.698;104.050;2022-08-25T07:02:29;31.20;99.90
17859;DHT22;35426;30.698;104.050;2022-08-25T07:05:08;31.30;99.90
17859;DHT22;35426;30.698;104.050;2022-08-25T07:08:02;30.90;99.90
17859;DHT22;35426;30.698;104.050;2022-08-25T07:10:36;30.90;99.90
17859;DHT22;35426;30.698;104.050;2022-08-25T07:13:16;31.10;99.90
17859;DHT22;35426;30.698;104.050;2022-08-25T07:15:53;30.50;99.90
17859;DHT22;35426;30.698;104.050;2022-08-25T07:18:30;30.90;99.90
17859;DHT22;35426;30.698;104.050;2022-08-25T07:21:06;31.00;99.90
17859;DHT22;35426;30.698;104.050;2022-08-25T07:23:44;31.30;99.90
17859;DHT22;35426;30.698;104.050;2022-08-25T07:26:20;31.30;99.90
17859;DHT22;35426;30.698;104.050;2022-08-25T07:29:11;31.20;99.90
17859;DHT22;35426;30.698;104.050;2022-08-25T07:31:46;31.10;99.90
17859;DHT22;35426;30.698;104.050;2022-08-25T07:34:23;31.10;99.90
17859;DHT22;35426;30.698;104.050;2022-08-25T07:37:23;31.10;99.90
17859;DHT22;35426;30.698;104.050;2022-08-25T07:40:18;31.10;99.90
17859;DHT22;35426;30.698;104.050;2022-08-25T07:42:59;30.80;99.90
17859;DHT22;35426;30.698;104.050;2022-08-25T07:45:37;30.90;99.90
17859;DHT22;35426;30.698;104.050;2022-08-25T07:48:18;31.00;99.90
17859;DHT22;35426;30.698;104.050;2022-08-25T07:50:52;31.20;99.90
17859;DHT22;35426;30.698;104.050;2022-08-25T07:53:28;31.20;99.90
17859;DHT22;35426;30.698;104.050;2022-08-25T07:56:02;30.80;99.90
17859;DHT22;35426;30.698;104.050;2022-08-25T07:58:36;30.70;99.90
17859;DHT22;35426;30.698;104.050;2022-08-25T08:01:14;30.70;99.90
17859;DHT22;35426;30.698;104.050;2022-08-25T08:03:49;30.50;99.90
17859;DHT22;35426;30.698;104.050;2022-08-25T08:06:23;30.40;99.90
17859;DHT22;35426;30.698;104.050;2022-08-25T08:08:59;30.50;99.90
17859;DHT22;35426;30.698;104.050;2022-08-25T08:11:35;30.60;99.90
17859;DHT22;35426;30.698;104.050;2022-08-25T08:14:22;30.80;99.90
17859;DHT22;35426;30.698;104.050;2022-08-25T08:16:56;30.60;99.90
17859;DHT22;35426;30.698;104.050;2022-08-25T08:19:31;30.60;99.90
17859;DHT22;35426;30.698;104.050;2022-08-25T08:22:06;30.70;99.90
17859;DHT22;35426;30.698;104.050;2022-08-25T08:24:43;30.50;99.90
17859;DHT22;35426;30.698;104.050;2022-08-25T08:27:23;30.60;99.90
17859;DHT22;35426;30.698;104.050;2022-08-25T08:29:57;30.70;99.90
17859;DHT22;35426;30.698;104.050;2022-08-25T08:32:31;31.00;99.90
17859;DHT22;35426;30.698;104.050;2022-08-25T08:35:24;31.10;99.90
17859;DHT22;35426;30.698;104.050;2022-08-25T08:37:58;30.70;99.90
17859;DHT22;35426;30.698;104.050;2022-08-25T08:40:40;30.50;99.90
17859;DHT22;35426;30.698;104.050;2022-08-25T08:43:36;30.80;99.90
17859;DHT22;35426;30.698;104.050;2022-08-25T08:46:11;30.90;99.90
17859;DHT22;35426;30.698;104.050;2022-08-25T08:48:59;31.00;99.90
17859;DHT22;35426;30.698;104.050;2022-08-25T08:51:41;30.90;99.90
17859;DHT22;35426;30.698;104.050;2022-08-25T08:54:19;30.70;99.90
17859;DHT22;35426;30.698;104.050;2022-08-25T08:57:08;30.50;99.90
17859;DHT22;35426;30.698;104.050;2022-08-25T08:59:47;30.70;99.90
17859;DHT22;35426;30.698;104.050;2022-08-25T09:02:27;30.40;99.90
17859;DHT22;35426;30.698;104.050;2022-08-25T09:05:20;30.40;99.90
17859;DHT22;35426;30.698;104.050;2022-08-25T09:07:57;30.60;99.90
17859;DHT22;35426;30.698;104.050;2022-08-25T09:10:38;30.80;99.90
17859;DHT22;35426;30.698;104.050;2022-08-25T09:13:22;30.80;99.90
17859;DHT22;35426;30.698;104.050;2022-08-25T09:16:06;30.80;99.90
17859;DHT22;35426;30.698;104.050;2022-08-25T09:19:13;30.70;99.90
17859;DHT22;35426;30.698;104.050;2022-08-25T09:21:57;30.80;99.90
17859;DHT22;35426;30.698;104.050;2022-08-25T09:25:01;30.80;99.90
17859;DHT22;35426;30.698;104.050;2022-08-25T09:27:42;30.80;99.90
17859;DHT22;35426;30.698;104.050;2022-08-25T09:30:22;30.70;99.90
17859;DHT22;35426;30.698;104.050;2022-08-25T09:32:56;31.10;99.90
17859;DHT22;35426;30.698;104.050;2022-08-25T09:35:35;31.30;99.90
17859;DHT22;35426;30.698;104.050;2022-08-25T09:38:09;31.00;99.90
17859;DHT22;35426;30.698;104.050;2022-08-25T09:40:46;31.00;99.90
17859;DHT22;35426;30.698;104.050;2022-08-25T09:43:23;30.70;99.90
17859;DHT22;35426;30.698;104.050;2022-08-25T09:46:09;30.70;99.90
17859;DHT22;35426;30.698;104.050;2022-08-25T09:48:45;30.80;99.90
17859;DHT22;35426;30.698;104.050;2022-08-25T09:51:29;30.80;99.90
17859;DHT22;35426;30.698;104.050;2022-08-25T09:54:19;30.80;99.90
17859;DHT22;35426;30.698;104.050;2022-08-25T09:57:28;30.80;99.90
17859;DHT22;35426;30.698;104.050;2022-08-25T10:00:15;30.60;99.90
17859;DHT22;35426;30.698;104.050;2022-08-25T10:03:11;30.60;99.90
17859;DHT22;35426;30.698;104.050;2022-08-25T10:06:03;30.60;99.90
17859;DHT22;35426;30.698;104.050;2022-08-25T10:08:52;30.70;99.90
17859;DHT22;35426;30.698;104.050;2022-08-25T10:11:45;30.60;99.90
17859;DHT22;35426;30.698;104.050;2022-08-25T10:14:31;30.60;99.90
17859;DHT22;35426;30.698;104.050;2022-08-25T10:17:15;30.60;99.90
17859;DHT22;35426;30.698;104.050;2022-08-25T10:20:15;30.50;99.90
17859;DHT22;35426;30.698;104.050;2022-08-25T10:22:50;30.40;99.90
17859;DHT22;35426;30.698;104.050;2022-08-25T10:25:32;30.30;99.90
17859;DHT22;35426;30.698;104.050;2022-08-25T10:28:11;30.30;99.90
17859;DHT22;35426;30.698;104.050;2022-08-25T10:30:58;30.40;99.90
17859;DHT22;35426;30.698;104.050;2022-08-25T10:33:45;30.40;99.90
17859;DHT22;35426;30.698;104.050;2022-08-25T10:36:32;30.40;99.90
17859;DHT22;35426;30.698;104.050;2022-08-25T10:39:24;30.00;99.90
17859;DHT22;35426;30.698;104.050;2022-08-25T10:42:18;30.00;99.90
17859;DHT22;35426;30.698;104.050;2022-08-25T10:45:05;30.20;99.90
17859;DHT22;35426;30.698;104.050;2022-08-25T10:48:16;30.00;99.90
17859;DHT22;35426;30.698;104.050;2022-08-25T10:50:57;30.00;99.90
17859;DHT22;35426;30.698;104.050;2022-08-25T10:53:43;30.00;99.90
17859;DHT22;35426;30.698;104.050;2022-08-25T10:56:30;29.90;99.90
17859;DHT22;35426;30.698;104.050;2022-08-25T10:59:26;29.80;99.90
17859;DHT22;35426;30.698;104.050;2022-08-25T11:05:13;29.90;99.90
17859;DHT22;35426;30.698;104.050;2022-08-25T11:07:57;29.60;99.90
17859;DHT22;35426;30.698;104.050;2022-08-25T11:10:42;29.70;99.90
17859;DHT22;35426;30.698;104.050;2022-08-25T11:13:22;29.70;99.90
17859;DHT22;35426;30.698;104.050;2022-08-25T11:16:02;29.80;99.90
17859;DHT22;35426;30.698;104.050;2022-08-25T11:18:54;29.90;99.90
17859;DHT22;35426;30.698;104.050;2022-08-25T11:21:43;29.90;99.90
17859;DHT22;35426;30.698;104.050;2022-08-25T11:24:51;29.80;99.90
17859;DHT22;35426;30.698;104.050;2022-08-25T11:27:34;29.60;99.90
17859;DHT22;35426;30.698;104.050;2022-08-25T11:30:12;29.60;99.90
17859;DHT22;35426;30.698;104.050;2022-08-25T11:32:48;29.70;99.90
17859;DHT22;35426;30.698;104.050;2022-08-25T11:35:28;29.70;99.90
17859;DHT22;35426;30.698;104.050;2022-08-25T11:38:22;29.70;99.90
17859;DHT22;35426;30.698;104.050;2022-08-25T11:41:24;29.60;99.90
17859;DHT22;35426;30.698;104.050;2022-08-25T11:44:13;29.70;99.90
17859;DHT22;35426;30.698;104.050;2022-08-25T11:47:07;29.60;99.90
17859;DHT22;35426;30.698;104.050;2022-08-25T11:49:52;29.50;99.90
17859;DHT22;35426;30.698;104.050;2022-08-25T11:52:45;29.40;99.90
17859;DHT22;35426;30.698;104.050;2022-08-25T11:55:22;29.40;99.90
17859;DHT22;35426;30.698;104.050;2022-08-25T11:58:32;29.40;99.90
17859;DHT22;35426;30.698;104.050;2022-08-25T12:01:12;29.30;99.90
17859;DHT22;35426;30.698;104.050;2022-08-25T12:04:15;29.20;99.90
17859;DHT22;35426;30.698;104.050;2022-08-25T12:07:22;29.20;99.90
17859;DHT22;35426;30.698;104.050;2022-08-25T12:17:38;29.10;99.90
17859;DHT22;35426;30.698;104.050;2022-08-25T12:20:11;29.00;99.90
17859;DHT22;35426;30.698;104.050;2022-08-25T12:22:55;29.00;99.90
17859;DHT22;35426;30.698;104.050;2022-08-25T12:25:48;29.00;99.90
17859;DHT22;35426;30.698;104.050;2022-08-25T12:28:41;29.10;99.90
17859;DHT22;35426;30.698;104.050;2022-08-25T12:31:33;29.10;99.90
17859;DHT22;35426;30.698;104.050;2022-08-25T12:34:31;29.10;99.90
17859;DHT22;35426;30.698;104.050;2022-08-25T12:37:14;29.10;99.90
17859;DHT22;35426;30.698;104.050;2022-08-25T12:39:56;29.10;99.90
17859;DHT22;35426;30.698;104.050;2022-08-25T12:42:34;28.90;99.90
17859;DHT22;35426;30.698;104.050;2022-08-25T12:45:12;28.90;99.90
17859;DHT22;35426;30.698;104.050;2022-08-25T12:47:47;29.00;99.90
17859;DHT22;35426;30.698;104.050;2022-08-25T12:50:39;28.90;99.90
17859;DHT22;35426;30.698;104.050;2022-08-25T12:53:17;28.90;99.90
17859;DHT22;35426;30.698;104.050;2022-08-25T12:56:01;28.90;99.90
17859;DHT22;35426;30.698;104.050;2022-08-25T13:08:01;28.80;99.90
17859;DHT22;35426;30.698;104.050;2022-08-25T13:10:46;28.90;99.90
17859;DHT22;35426;30.698;104.050;2022-08-25T13:13:36;28.80;99.90
17859;DHT22;35426;30.698;104.050;2022-08-25T13:16:18;28.80;99.90
17859;DHT22;35426;30.698;104.050;2022-08-25T13:19:01;28.90;99.90
17859;DHT22;35426;30.698;104.050;2022-08-25T13:21:49;28.70;99.90
17859;DHT22;35426;30.698;104.050;2022-08-25T13:24:27;28.70;99.90
17859;DHT22;35426;30.698;104.050;2022-08-25T13:27:18;28.70;99.90
17859;DHT22;35426;30.698;104.050;2022-08-25T13:29:55;28.70;99.90
17859;DHT22;35426;30.698;104.050;2022-08-25T13:32:35;28.70;99.90
17859;DHT22;35426;30.698;104.050;2022-08-25T13:35:15;28.70;99.90
17859;DHT22;35426;30.698;104.050;2022-08-25T13:37:50;28.80;99.90
17859;DHT22;35426;30.698;104.050;2022-08-25T13:40:27;28.70;99.90
17859;DHT22;35426;30.698;104.050;2022-08-25T13:43:06;28.70;99.90
17859;DHT22;35426;30.698;104.050;2022-08-25T13:45:44;28.70;99.90
17859;DHT22;35426;30.698;104.050;2022-08-25T13:48:39;28.70;99.90
17859;DHT22;35426;30.698;104.050;2022-08-25T13:51:26;28.70;99.90
17859;DHT22;35426;30.698;104.050;2022-08-25T13:54:06;28.70;99.90
17859;DHT22;35426;30.698;104.050;2022-08-25T13:56:44;28.70;99.90
17859;DHT22;35426;30.698;104.050;2022-08-25T13:59:24;28.80;99.90
17859;DHT22;35426;30.698;104.050;2022-08-25T14:02:10;28.90;99.90
17859;DHT22;35426;30.698;104.050;2022-08-25T14:04:51;29.00;99.90
17859;DHT22;35426;30.698;104.050;2022-08-25T14:07:29;28.90;99.90
17859;DHT22;35426;30.698;104.050;2022-08-25T14:10:07;29.00;99.90
17859;DHT22;35426;30.698;104.050;2022-08-25T14:12:47;29.10;99.90
17859;DHT22;35426;30.698;104.050;2022-08-25T14:15:41;29.10;99.90
17859;DHT22;35426;30.698;104.050;2022-08-25T14:18:28;29.00;99.90
17859;DHT22;35426;30.698;104.050;2022-08-25T14:21:09;29.00;99.90
17859;DHT22;35426;30.698;104.050;2022-08-25T14:23:47;28.90;99.90
17859;DHT22;35426;30.698;104.050;2022-08-25T14:26:21;28.90;99.90
17859;DHT22;35426;30.698;104.050;2022-08-25T14:28:58;29.00;99.90
17859;DHT22;35426;30.698;104.050;2022-08-25T14:31:39;28.90;99.90
17859;DHT22;35426;30.698;104.050;2022-08-25T14:34:15;28.80;99.90
17859;DHT22;35426;30.698;104.050;2022-08-25T14:36:57;28.80;99.90
17859;DHT22;35426;30.698;104.050;2022-08-25T14:39:33;28.90;99.90
17859;DHT22;35426;30.698;104.050;2022-08-25T14:42:11;28.80;99.90
17859;DHT22;35426;30.698;104.050;2022-08-25T14:44:58;28.80;99.90
17859;DHT22;35426;30.698;104.050;2022-08-25T14:47:35;28.80;99.90
17859;DHT22;35426;30.698;104.050;2022-08-25T14:50:23;28.70;99.90
17859;DHT22;35426;30.698;104.050;2022-08-25T14:53:05;28.70;99.90
17859;DHT22;35426;30.698;104.050;2022-08-25T14:55:39;28.80;99.90
17859;DHT22;35426;30.698;104.050;2022-08-25T14:58:17;28.70;99.90
17859;DHT22;35426;30.698;104.050;2022-08-25T15:00:58;28.70;99.90
17859;DHT22;35426;30.698;104.050;2022-08-25T15:03:37;28.70;99.90
17859;DHT22;35426;30.698;104.050;2022-08-25T15:06:27;28.70;99.90
17859;DHT22;35426;30.698;104.050;2022-08-25T15:09:02;28.90;99.90
17859;DHT22;35426;30.698;104.050;2022-08-25T15:11:46;28.80;99.90
17859;DHT22;35426;30.698;104.050;2022-08-25T15:14:33;28.90;99.90
17859;DHT22;35426;30.698;104.050;2022-08-25T15:17:20;28.80;99.90
17859;DHT22;35426;30.698;104.050;2022-08-25T15:20:13;28.80;99.90
17859;DHT22;35426;30.698;104.050;2022-08-25T15:22:49;28.70;99.90
17859;DHT22;35426;30.698;104.050;2022-08-25T15:25:26;28.70;99.90
17859;DHT22;35426;30.698;104.050;2022-08-25T15:28:04;28.70;99.90
17859;DHT22;35426;30.698;104.050;2022-08-25T15:30:49;28.70;99.90
17859;DHT22;35426;30.698;104.050;2022-08-25T15:33:26;28.80;99.90
17859;DHT22;35426;30.698;104.050;2022-08-25T15:36:02;28.80;99.90
17859;DHT22;35426;30.698;104.050;2022-08-25T15:38:54;28.80;99.90
17859;DHT22;35426;30.698;104.050;2022-08-25T15:41:34;28.80;99.90
17859;DHT22;35426;30.698;104.050;2022-08-25T15:44:12;28.80;99.90
17859;DHT22;35426;30.698;104.050;2022-08-25T15:47:00;28.80;99.90
17859;DHT22;35426;30.698;104.050;2022-08-25T15:49:42;28.80;99.90
17859;DHT22;35426;30.698;104.050;2022-08-25T15:52:18;28.80;99.90
17859;DHT22;35426;30.698;104.050;2022-08-25T15:54:57;28.70;99.90
17859;DHT22;35426;30.698;104.050;2022-08-25T15:57:30;28.70;99.90
17859;DHT22;35426;30.698;104.050;2022-08-25T16:00:13;28.70;99.90
17859;DHT22;35426;30.698;104.050;2022-08-25T16:02:55;28.70;99.90
17859;DHT22;35426;30.698;104.050;2022-08-25T16:05:31;28.70;99.90
17859;DHT22;35426;30.698;104.050;2022-08-25T16:08:06;28.70;99.90
17859;DHT22;35426;30.698;104.050;2022-08-25T16:10:48;28.70;99.90
17859;DHT22;35426;30.698;104.050;2022-08-25T16:13:23;28.60;99.90
17859;DHT22;35426;30.698;104.050;2022-08-25T16:16:02;28.60;99.90
17859;DHT22;35426;30.698;104.050;2022-08-25T16:18:38;28.60;99.90
17859;DHT22;35426;30.698;104.050;2022-08-25T16:21:20;28.60;99.90
17859;DHT22;35426;30.698;104.050;2022-08-25T16:24:00;28.70;99.90
17859;DHT22;35426;30.698;104.050;2022-08-25T16:26:37;28.70;99.90
17859;DHT22;35426;30.698;104.050;2022-08-25T16:29:17;28.80;99.90
17859;DHT22;35426;30.698;104.050;2022-08-25T16:31:52;28.70;99.90
17859;DHT22;35426;30.698;104.050;2022-08-25T16:34:38;28.60;99.90
17859;DHT22;35426;30.698;104.050;2022-08-25T16:37:17;28.80;99.90
17859;DHT22;35426;30.698;104.050;2022-08-25T16:39:53;28.80;99.90
17859;DHT22;35426;30.698;104.050;2022-08-25T16:42:29;28.80;99.90